createdAt,value
2018-06-13T00:01:31.296Z,10.73
2018-06-13T00:03:59.599Z,9.73
2018-06-13T00:06:27.939Z,10.00
2018-06-13T00:08:56.244Z,12.30
2018-06-13T00:11:24.561Z,11.30
2018-06-13T00:13:52.856Z,11.57
2018-06-13T00:16:21.184Z,11.57
2018-06-13T00:18:49.487Z,11.17
2018-06-13T00:21:17.800Z,11.50
2018-06-13T00:23:46.121Z,11.60
2018-06-13T00:26:14.423Z,11.40
2018-06-13T00:28:42.744Z,10.40
2018-06-13T00:31:11.170Z,11.80
2018-06-13T00:33:39.481Z,10.80
2018-06-13T00:36:07.792Z,10.77
2018-06-13T00:38:36.119Z,11.00
2018-06-13T00:41:04.432Z,12.60
2018-06-13T00:43:32.760Z,10.33
2018-06-13T00:46:01.081Z,11.10
2018-06-13T00:48:29.392Z,9.90
2018-06-13T00:50:57.711Z,10.97
2018-06-13T00:53:27.012Z,10.53
2018-06-13T00:56:06.382Z,7.87
2018-06-13T00:58:34.779Z,9.37
2018-06-13T01:01:03.156Z,9.23
2018-06-13T01:03:31.467Z,7.80
2018-06-13T01:05:59.790Z,8.10
2018-06-13T01:08:28.156Z,8.13
2018-06-13T01:10:56.476Z,7.90
2018-06-13T01:13:24.767Z,7.17
2018-06-13T01:15:53.077Z,7.67
2018-06-13T01:18:21.391Z,6.60
2018-06-13T01:20:49.710Z,7.30
2018-06-13T01:23:18.068Z,6.50
2018-06-13T01:25:46.364Z,5.77
2018-06-13T01:28:14.673Z,7.03
2018-06-13T01:30:42.985Z,6.07
2018-06-13T01:33:11.816Z,5.03
2018-06-13T01:35:40.128Z,5.30
2018-06-13T01:38:08.445Z,5.13
2018-06-13T01:40:36.744Z,5.10
2018-06-13T01:43:05.091Z,4.53
2018-06-13T01:45:33.453Z,4.53
2018-06-13T01:48:01.756Z,4.40
2018-06-13T01:50:30.060Z,5.03
2018-06-13T01:52:58.367Z,4.67
2018-06-13T01:55:26.678Z,5.07
2018-06-13T01:57:54.996Z,4.40
2018-06-13T02:00:23.289Z,4.73
2018-06-13T02:02:51.852Z,4.50
2018-06-13T02:05:20.155Z,4.60
2018-06-13T02:07:48.468Z,4.87
2018-06-13T02:10:16.857Z,5.43
2018-06-13T02:12:45.168Z,4.03
2018-06-13T02:15:14.487Z,3.73
2018-06-13T02:17:42.780Z,4.10
2018-06-13T02:20:11.104Z,4.20
2018-06-13T02:22:39.435Z,4.50
2018-06-13T02:25:07.740Z,4.37
2018-06-13T02:27:36.069Z,4.70
2018-06-13T02:30:04.437Z,5.07
2018-06-13T02:32:32.824Z,6.37
2018-06-13T02:35:01.659Z,6.10
2018-06-13T02:37:29.967Z,5.80
2018-06-13T02:39:58.961Z,6.10
2018-06-13T02:42:27.340Z,6.30
2018-06-13T02:44:55.867Z,6.00
2018-06-13T02:47:25.069Z,5.57
2018-06-13T02:49:53.404Z,6.70
2018-06-13T02:52:22.016Z,6.10
2018-06-13T02:54:50.332Z,6.33
2018-06-13T02:57:18.640Z,6.57
2018-06-13T02:59:46.951Z,6.07
2018-06-13T03:02:15.248Z,6.40
2018-06-13T03:04:43.564Z,6.70
2018-06-13T03:07:12.452Z,6.13
2018-06-13T03:09:40.762Z,5.67
2018-06-13T03:12:09.660Z,6.30
2018-06-13T03:14:38.000Z,6.13
2018-06-13T03:17:06.403Z,5.00
2018-06-13T03:19:34.712Z,5.63
2018-06-13T03:22:03.022Z,4.50
2018-06-13T03:24:31.312Z,4.80
2018-06-13T03:26:59.620Z,5.33
2018-06-13T03:29:27.920Z,5.40
2018-06-13T03:31:56.216Z,5.13
2018-06-13T03:34:24.522Z,5.07
2018-06-13T03:36:52.855Z,6.07
2018-06-13T03:39:21.184Z,5.93
2018-06-13T03:41:49.536Z,5.17
2018-06-13T03:44:17.829Z,5.50
2018-06-13T03:46:46.132Z,5.50
2018-06-13T03:49:14.437Z,4.73
2018-06-13T03:51:42.735Z,5.83
2018-06-13T03:54:11.431Z,6.70
2018-06-13T03:56:39.734Z,7.03
2018-06-13T03:59:08.036Z,6.20
2018-06-13T04:01:36.485Z,6.67
2018-06-13T04:04:04.795Z,6.87
2018-06-13T04:06:33.105Z,5.90
2018-06-13T04:09:01.436Z,6.77
2018-06-13T04:11:29.750Z,7.20
2018-06-13T04:13:58.055Z,7.17
2018-06-13T04:16:27.051Z,6.33
2018-06-13T04:18:55.389Z,7.00
2018-06-13T04:21:23.712Z,6.90
2018-06-13T04:23:52.011Z,7.10
2018-06-13T04:26:20.320Z,7.27
2018-06-13T04:28:48.656Z,6.50
2018-06-13T04:31:16.974Z,6.73
2018-06-13T04:33:45.275Z,6.47
2018-06-13T04:36:13.617Z,7.23
2018-06-13T04:38:41.929Z,6.50
2018-06-13T04:41:10.237Z,6.43
2018-06-13T04:43:38.565Z,5.90
2018-06-13T04:46:06.872Z,6.53
2018-06-13T04:48:35.179Z,6.63
2018-06-13T04:51:03.543Z,5.90
2018-06-13T04:53:31.831Z,6.70
2018-06-13T04:56:00.132Z,6.33
2018-06-13T04:58:28.436Z,6.53
2018-06-13T05:00:56.728Z,6.03
2018-06-13T05:03:25.037Z,6.30
2018-06-13T05:05:53.384Z,6.17
2018-06-13T05:08:21.692Z,5.80
2018-06-13T05:10:50.004Z,6.43
2018-06-13T05:13:18.340Z,5.90
2018-06-13T05:15:46.633Z,7.80
2018-06-13T05:18:15.655Z,6.07
2018-06-13T05:20:43.972Z,6.80
2018-06-13T05:23:12.281Z,6.03
2018-06-13T05:25:40.588Z,6.20
2018-06-13T05:28:08.906Z,7.23
2018-06-13T05:30:37.200Z,7.40
2018-06-13T05:33:05.542Z,6.23
2018-06-13T05:35:33.868Z,5.60
2018-06-13T05:38:02.199Z,7.30
2018-06-13T05:40:30.520Z,7.10
2018-06-13T05:42:58.936Z,6.50
2018-06-13T05:45:27.224Z,5.73
2018-06-13T05:47:55.533Z,6.70
2018-06-13T05:50:23.867Z,6.60
2018-06-13T05:52:52.237Z,7.43
2018-06-13T05:55:20.576Z,6.50
2018-06-13T05:57:48.893Z,7.30
2018-06-13T06:00:17.212Z,6.00
2018-06-13T06:02:45.516Z,6.77
2018-06-13T06:05:13.840Z,6.10
2018-06-13T06:07:42.166Z,6.00
2018-06-13T06:10:10.507Z,6.70
2018-06-13T06:12:38.803Z,6.93
2018-06-13T06:15:07.728Z,6.73
2018-06-13T06:17:36.043Z,6.47
2018-06-13T06:20:05.888Z,5.90
2018-06-13T06:22:34.244Z,6.10
2018-06-13T06:25:03.346Z,6.00
2018-06-13T06:27:31.640Z,5.40
2018-06-13T06:29:59.978Z,6.50
2018-06-13T06:32:28.994Z,5.77
2018-06-13T06:34:57.329Z,4.70
2018-06-13T06:37:25.677Z,5.03
2018-06-13T06:39:53.983Z,5.30
2018-06-13T06:42:22.327Z,5.53
2018-06-13T06:44:50.732Z,5.13
2018-06-13T06:47:19.090Z,5.03
2018-06-13T06:49:47.458Z,3.87
2018-06-13T06:52:15.867Z,5.17
2018-06-13T06:54:44.173Z,5.40
2018-06-13T06:57:12.504Z,4.60
2018-06-13T06:59:40.815Z,6.00
2018-06-13T07:02:09.148Z,3.80
2018-06-13T07:04:37.453Z,4.90
2018-06-13T07:07:05.832Z,4.27
2018-06-13T07:09:34.125Z,3.97
2018-06-13T07:12:02.468Z,4.07
2018-06-13T07:14:30.780Z,4.10
2018-06-13T07:16:59.724Z,3.73
2018-06-13T07:19:28.052Z,2.77
2018-06-13T07:21:56.377Z,3.30
2018-06-13T07:24:24.792Z,3.70
2018-06-13T07:26:53.099Z,3.40
2018-06-13T07:29:21.416Z,2.20
2018-06-13T07:31:49.724Z,3.50
2018-06-13T07:34:18.042Z,3.00
2018-06-13T07:36:46.336Z,3.40
2018-06-13T07:39:14.909Z,3.13
2018-06-13T07:41:43.197Z,2.47
2018-06-13T07:44:11.488Z,3.03
2018-06-13T07:46:39.804Z,2.40
2018-06-13T07:49:09.028Z,3.17
2018-06-13T07:51:37.343Z,2.07
2018-06-13T07:54:05.750Z,3.10
2018-06-13T07:56:34.064Z,2.77
2018-06-13T07:59:02.362Z,2.70
2018-06-13T08:01:30.701Z,3.27
2018-06-13T08:03:58.991Z,4.00
2018-06-13T08:06:27.332Z,3.47
2018-06-13T08:08:55.652Z,3.50
2018-06-13T08:11:23.932Z,3.40
2018-06-13T08:13:52.224Z,3.17
2018-06-13T08:16:20.559Z,4.33
2018-06-13T08:18:48.861Z,5.40
2018-06-13T08:21:17.697Z,3.87
2018-06-13T08:23:46.016Z,3.60
2018-06-13T08:26:14.976Z,2.90
2018-06-13T08:28:43.295Z,3.63
2018-06-13T08:31:11.592Z,2.80
2018-06-13T08:33:39.977Z,2.83
2018-06-13T08:36:08.259Z,2.83
2018-06-13T08:38:36.568Z,3.00
2018-06-13T08:41:04.875Z,3.10
2018-06-13T08:43:34.112Z,2.60
2018-06-13T08:46:02.411Z,2.67
2018-06-13T08:48:30.762Z,2.93
2018-06-13T08:50:59.044Z,2.93
2018-06-13T08:53:27.464Z,3.10
2018-06-13T08:55:55.838Z,2.40
2018-06-13T08:58:24.132Z,2.43
2018-06-13T09:00:52.459Z,3.40
2018-06-13T09:03:20.778Z,2.60
2018-06-13T09:05:49.081Z,2.63
2018-06-13T09:08:17.780Z,2.70
2018-06-13T09:10:46.088Z,3.07
2018-06-13T09:13:14.383Z,2.30
2018-06-13T09:15:42.772Z,2.77
2018-06-13T09:18:11.243Z,3.00
2018-06-13T09:20:39.556Z,3.10
2018-06-13T09:23:07.879Z,2.80
2018-06-13T09:25:36.192Z,3.03
2018-06-13T09:28:04.513Z,3.60
2018-06-13T09:30:32.837Z,3.27
2018-06-13T09:33:01.216Z,3.20
2018-06-13T09:35:29.518Z,3.20
2018-06-13T09:37:57.844Z,3.30
2018-06-13T09:40:26.133Z,3.00
2018-06-13T09:42:54.451Z,2.67
2018-06-13T09:45:22.748Z,3.30
2018-06-13T09:47:51.070Z,3.20
2018-06-13T09:50:19.395Z,3.53
2018-06-13T09:52:47.728Z,3.20
2018-06-13T09:55:16.122Z,2.73
2018-06-13T09:57:44.424Z,3.10
2018-06-13T10:00:17.956Z,2.77
2018-06-13T10:02:46.252Z,2.83
2018-06-13T10:05:14.608Z,3.07
2018-06-13T10:07:42.920Z,2.70
2018-06-13T10:10:11.236Z,2.80
2018-06-13T10:12:39.527Z,2.90
2018-06-13T10:15:08.236Z,2.57
2018-06-13T10:17:36.536Z,2.63
2018-06-13T10:20:04.911Z,1.97
2018-06-13T10:22:33.228Z,1.67
2018-06-13T10:25:02.061Z,1.90
2018-06-13T10:27:35.753Z,2.40
2018-06-13T10:30:04.137Z,2.57
2018-06-13T10:32:33.156Z,2.70
2018-06-13T10:35:02.600Z,2.40
2018-06-13T10:37:31.296Z,2.40
2018-06-13T10:39:59.612Z,1.77
2018-06-13T10:42:27.967Z,2.70
2018-06-13T10:44:56.505Z,3.07
2018-06-13T10:47:24.824Z,2.40
2018-06-13T10:49:53.129Z,2.30
2018-06-13T10:52:21.443Z,2.07
2018-06-13T10:54:49.766Z,1.93
2018-06-13T10:57:18.116Z,1.80
2018-06-13T10:59:46.432Z,1.60
2018-06-13T11:02:14.764Z,1.80
2018-06-13T11:04:43.102Z,1.50
2018-06-13T11:07:11.376Z,1.70
2018-06-13T11:09:39.694Z,1.73
2018-06-13T11:12:08.000Z,1.80
2018-06-13T11:14:37.300Z,1.70
2018-06-13T11:17:05.641Z,1.30
2018-06-13T11:19:33.997Z,1.67
2018-06-13T11:22:02.306Z,1.43
2018-06-13T11:24:30.640Z,1.60
2018-06-13T11:26:58.940Z,1.70
2018-06-13T11:29:27.251Z,1.70
2018-06-13T11:31:55.548Z,1.53
2018-06-13T11:34:23.840Z,1.17
2018-06-13T11:36:52.482Z,1.53
2018-06-13T11:39:20.813Z,1.33
2018-06-13T11:41:49.116Z,1.80
2018-06-13T11:44:17.424Z,1.60
2018-06-13T11:46:45.747Z,1.63
2018-06-13T11:49:14.056Z,1.30
2018-06-13T11:51:42.380Z,1.50
2018-06-13T11:54:10.692Z,1.60
2018-06-13T11:56:39.012Z,1.80
2018-06-13T11:59:07.786Z,2.33
2018-06-13T12:01:36.232Z,1.73
2018-06-13T12:04:04.565Z,1.80
2018-06-13T12:06:32.972Z,1.70
2018-06-13T12:09:01.364Z,2.03
2018-06-13T12:11:29.764Z,1.73
2018-06-13T12:13:58.053Z,1.53
2018-06-13T12:16:26.361Z,1.37
2018-06-13T12:18:54.772Z,1.77
2018-06-13T12:21:23.072Z,1.47
2018-06-13T12:23:51.439Z,2.17
2018-06-13T12:26:19.732Z,1.20
2018-06-13T12:28:48.079Z,1.70
2018-06-13T12:31:16.405Z,1.80
2018-06-13T12:33:44.760Z,2.07
2018-06-13T12:36:13.048Z,2.10
2018-06-13T12:38:41.412Z,1.40
2018-06-13T12:41:09.721Z,1.30
2018-06-13T12:43:38.069Z,1.17
2018-06-13T12:46:06.383Z,1.77
2018-06-13T12:48:34.688Z,1.40
2018-06-13T12:51:03.125Z,2.00
2018-06-13T12:53:31.404Z,1.20
2018-06-13T12:55:59.734Z,1.67
2018-06-13T12:58:28.040Z,0.97
2018-06-13T13:00:56.362Z,1.17
2018-06-13T13:03:24.768Z,1.20
2018-06-13T13:05:53.084Z,1.37
2018-06-13T13:08:21.408Z,1.03
2018-06-13T13:10:49.831Z,1.33
2018-06-13T13:13:18.192Z,1.20
2018-06-13T13:15:46.560Z,1.20
2018-06-13T13:18:14.948Z,1.20
2018-06-13T13:20:43.248Z,1.20
2018-06-13T13:23:11.604Z,1.57
2018-06-13T13:25:39.899Z,1.70
2018-06-13T13:28:08.256Z,1.77
2018-06-13T13:30:36.597Z,1.40
2018-06-13T13:33:05.063Z,1.60
2018-06-13T13:35:33.433Z,1.50
2018-06-13T13:38:01.786Z,1.67
2018-06-13T13:40:30.203Z,1.17
2018-06-13T13:42:58.496Z,1.37
2018-06-13T13:45:26.844Z,1.40
2018-06-13T13:47:55.104Z,1.70
2018-06-13T13:50:23.432Z,1.33
2018-06-13T13:52:51.780Z,1.60
2018-06-13T13:55:20.098Z,1.53
2018-06-13T13:57:48.405Z,1.40
2018-06-13T14:00:16.854Z,2.17
2018-06-13T14:02:45.349Z,1.57
2018-06-13T14:05:13.680Z,2.13
2018-06-13T14:07:41.998Z,1.20
2018-06-13T14:10:10.324Z,1.83
2018-06-13T14:12:38.630Z,1.70
2018-06-13T14:15:06.988Z,1.27
2018-06-13T14:17:35.284Z,1.20
2018-06-13T14:20:03.728Z,1.63
2018-06-13T14:22:32.102Z,1.40
2018-06-13T14:25:00.884Z,1.37
2018-06-13T14:27:29.217Z,1.00
2018-06-13T14:29:57.648Z,1.47
2018-06-13T14:32:25.980Z,1.23
2018-06-13T14:34:54.592Z,1.80
2018-06-13T14:37:23.016Z,1.37
2018-06-13T14:39:51.419Z,1.60
2018-06-13T14:42:19.842Z,1.90
2018-06-13T14:44:48.140Z,1.60
2018-06-13T14:47:16.561Z,1.37
2018-06-13T14:49:45.070Z,1.73
2018-06-13T14:52:13.405Z,1.40
2018-06-13T14:54:41.736Z,1.70
2018-06-13T14:57:10.044Z,1.23
2018-06-13T14:59:38.621Z,1.53
2018-06-13T15:02:07.043Z,1.20
2018-06-13T15:04:36.020Z,1.37
2018-06-13T15:07:05.652Z,1.57
2018-06-13T15:09:33.992Z,1.23
2018-06-13T15:12:02.388Z,2.10
2018-06-13T15:14:30.760Z,1.50
2018-06-13T15:16:59.157Z,1.73
2018-06-13T15:19:27.584Z,1.60
2018-06-13T15:21:55.918Z,1.77
2018-06-13T15:24:24.268Z,2.30
2018-06-13T15:26:52.680Z,3.10
2018-06-13T15:29:21.048Z,1.73
2018-06-13T15:31:49.404Z,2.20
2018-06-13T15:34:17.732Z,2.33
2018-06-13T15:36:46.080Z,1.77
2018-06-13T15:39:15.459Z,2.03
2018-06-13T15:41:44.456Z,1.63
2018-06-13T15:44:12.891Z,1.93
2018-06-13T15:46:41.336Z,1.70
2018-06-13T15:49:09.724Z,1.73
2018-06-13T15:51:38.047Z,1.40
2018-06-13T15:54:06.666Z,1.50
2018-06-13T15:56:35.029Z,1.83
2018-06-13T15:59:03.405Z,1.77
2018-06-13T16:01:32.141Z,1.50
2018-06-13T16:04:00.593Z,2.10
2018-06-13T16:06:28.967Z,1.97
2018-06-13T16:08:57.480Z,1.87
2018-06-13T16:13:48.758Z,1.93
2018-06-13T16:16:17.109Z,1.80
2018-06-13T16:18:45.476Z,2.20
2018-06-13T16:21:13.799Z,1.20
2018-06-13T16:23:42.129Z,1.70
2018-06-13T16:26:10.448Z,1.70
2018-06-13T16:28:38.844Z,1.60
2018-06-13T16:31:07.226Z,1.50
2018-06-13T16:33:35.586Z,1.37
2018-06-13T16:36:04.386Z,1.67
2018-06-13T16:38:32.748Z,1.40
2018-06-13T16:41:01.145Z,1.83
2018-06-13T16:43:29.536Z,1.27
2018-06-13T16:45:57.887Z,1.80
2018-06-13T16:48:26.276Z,1.80
2018-06-13T16:51:05.716Z,2.03
2018-06-13T16:53:58.100Z,1.30
2018-06-13T16:56:26.460Z,1.97
2018-06-13T16:58:54.772Z,1.40
2018-06-13T17:01:23.335Z,1.87
2018-06-13T17:03:52.323Z,1.83
2018-06-13T17:06:20.632Z,1.30
2018-06-13T17:08:49.024Z,1.43
2018-06-13T17:11:17.304Z,1.63
2018-06-13T17:13:45.616Z,2.17
2018-06-13T17:16:13.929Z,2.30
2018-06-13T17:18:42.242Z,2.10
2018-06-13T17:21:10.559Z,1.90
2018-06-13T17:23:40.556Z,1.97
2018-06-13T17:26:10.766Z,2.27
2018-06-13T17:28:41.665Z,1.73
2018-06-13T17:31:12.347Z,2.50
2018-06-13T17:33:43.603Z,2.07
2018-06-13T17:36:16.184Z,2.10
2018-06-13T17:38:46.903Z,2.30
2018-06-13T17:41:16.525Z,1.97
2018-06-13T17:43:45.659Z,2.73
2018-06-13T17:46:14.546Z,1.97
2018-06-13T17:48:45.355Z,2.40
2018-06-13T17:51:15.047Z,2.53
2018-06-13T17:53:45.081Z,2.50
2018-06-13T17:56:15.110Z,2.27
2018-06-13T17:58:43.752Z,2.50
2018-06-13T18:01:12.462Z,2.20
2018-06-13T18:03:41.527Z,2.70
2018-06-13T18:06:10.704Z,2.27
2018-06-13T18:08:39.336Z,2.40
2018-06-13T18:11:08.376Z,2.57
2018-06-13T18:13:36.995Z,2.50
2018-06-13T18:16:05.729Z,2.23
2018-06-13T18:18:34.991Z,2.10
2018-06-13T18:21:06.117Z,2.53
2018-06-13T18:23:34.948Z,2.17
2018-06-13T18:26:03.594Z,2.67
2018-06-13T18:28:32.487Z,2.37
2018-06-13T18:31:01.166Z,2.43
2018-06-13T18:33:30.415Z,2.47
2018-06-13T18:35:59.276Z,2.10
2018-06-13T18:38:28.096Z,2.43
2018-06-13T18:40:56.826Z,2.37
2018-06-13T18:43:26.375Z,2.77
2018-06-13T18:45:55.134Z,2.20
2018-06-13T18:48:23.830Z,2.80
2018-06-13T18:50:52.517Z,2.30
2018-06-13T18:53:21.183Z,3.30
2018-06-13T18:55:49.914Z,2.53
2018-06-13T18:58:18.639Z,2.43
2018-06-13T19:00:47.124Z,2.77
2018-06-13T19:03:17.195Z,2.37
2018-06-13T19:05:45.995Z,2.17
2018-06-13T19:08:14.639Z,3.50
2018-06-13T19:10:43.483Z,2.83
2018-06-13T19:13:12.216Z,2.37
2018-06-13T19:15:40.854Z,2.63
2018-06-13T19:18:09.419Z,2.53
2018-06-13T19:20:39.681Z,2.60
2018-06-13T19:23:08.204Z,2.70
2018-06-13T19:25:37.199Z,3.30
2018-06-13T19:28:05.794Z,3.50
2018-06-13T19:30:35.113Z,2.93
2018-06-13T19:33:03.686Z,2.90
2018-06-13T19:35:32.217Z,3.07
2018-06-13T19:38:00.740Z,3.47
2018-06-13T19:40:29.299Z,3.90
2018-06-13T19:42:57.997Z,7.10
2018-06-13T19:45:26.602Z,4.40
2018-06-13T19:48:00.320Z,3.53
2018-06-13T19:50:28.844Z,4.03
2018-06-13T19:53:02.532Z,3.50
2018-06-13T19:56:06.444Z,3.57
2018-06-13T19:58:36.875Z,4.20
2018-06-13T20:01:05.770Z,3.67
2018-06-13T20:03:40.041Z,4.80
2018-06-13T20:06:09.153Z,3.20
2018-06-13T20:08:38.388Z,4.73
2018-06-13T20:11:07.756Z,2.50
2018-06-13T20:13:41.747Z,3.30
2018-06-13T20:16:15.428Z,2.97
2018-06-13T20:18:49.372Z,3.13
2018-06-13T20:21:17.860Z,2.83
2018-06-13T20:23:47.517Z,2.80
2018-06-13T20:26:21.337Z,4.10
2018-06-13T20:28:55.543Z,3.30
2018-06-13T20:31:27.177Z,3.37
2018-06-13T20:33:55.870Z,3.37
2018-06-13T20:36:25.019Z,3.20
2018-06-13T20:38:53.563Z,4.37
2018-06-13T20:41:22.334Z,3.63
2018-06-13T20:43:50.968Z,3.10
2018-06-13T20:46:19.547Z,3.57
2018-06-13T20:48:48.407Z,3.27
2018-06-13T20:51:17.364Z,2.93
2018-06-13T20:53:46.977Z,3.47
2018-06-13T20:56:15.972Z,2.80
2018-06-13T20:58:45.081Z,3.47
2018-06-13T21:01:14.650Z,4.10
2018-06-13T21:03:45.940Z,3.27
2018-06-13T21:06:15.495Z,3.63
2018-06-13T21:08:46.567Z,3.37
2018-06-13T21:11:16.505Z,3.50
2018-06-13T21:13:45.174Z,3.83
2018-06-13T21:16:13.840Z,3.13
2018-06-13T21:18:42.418Z,2.47
2018-06-13T21:21:10.967Z,3.07
2018-06-13T21:23:41.055Z,3.50
2018-06-13T21:26:22.025Z,3.77
2018-06-13T21:28:53.024Z,4.07
2018-06-13T21:31:25.433Z,3.43
2018-06-13T21:33:56.296Z,3.87
2018-06-13T21:36:24.985Z,3.20
2018-06-13T21:38:53.672Z,2.90
2018-06-13T21:41:22.314Z,3.33
2018-06-13T21:43:50.935Z,3.60
2018-06-13T21:46:19.557Z,3.37
2018-06-13T21:48:48.163Z,3.20
2018-06-13T21:51:16.707Z,2.60
2018-06-13T21:53:45.146Z,2.70
2018-06-13T21:56:13.821Z,3.50
2018-06-13T21:58:42.494Z,3.40
2018-06-13T22:01:11.157Z,3.70
2018-06-13T22:03:39.920Z,3.03
2018-06-13T22:06:08.625Z,3.20
2018-06-13T22:08:37.232Z,4.00
2018-06-13T22:11:05.915Z,3.67
2018-06-13T22:13:34.567Z,3.10
2018-06-13T22:16:03.339Z,3.60
2018-06-13T22:18:32.125Z,3.77
2018-06-13T22:21:00.553Z,2.90
2018-06-13T22:23:29.234Z,3.93
2018-06-13T22:25:59.480Z,3.23
2018-06-13T22:28:29.013Z,3.27
2018-06-13T22:30:57.943Z,3.53
2018-06-13T22:33:26.982Z,3.60
2018-06-13T22:35:56.641Z,3.30
2018-06-13T22:38:26.333Z,3.27
2018-06-13T22:40:55.452Z,3.43
2018-06-13T22:43:24.566Z,3.10
2018-06-13T22:45:53.619Z,3.50
2018-06-13T22:48:22.565Z,3.50
2018-06-13T22:50:51.433Z,3.27
2018-06-13T22:53:21.341Z,2.93
2018-06-13T22:55:50.153Z,3.47
2018-06-13T22:58:18.988Z,3.23
2018-06-13T23:01:05.522Z,3.20
2018-06-13T23:03:36.046Z,3.77
2018-06-13T23:06:06.359Z,3.37
2018-06-13T23:08:35.541Z,2.73
2018-06-13T23:11:03.968Z,3.10
2018-06-13T23:13:32.298Z,3.20
2018-06-13T23:16:00.628Z,2.83
2018-06-13T23:18:29.479Z,3.50
2018-06-13T23:20:57.982Z,3.23
2018-06-13T23:23:26.347Z,2.90
2018-06-13T23:25:55.565Z,2.83
2018-06-13T23:28:23.970Z,3.37
2018-06-13T23:30:52.488Z,3.03
2018-06-13T23:33:20.809Z,4.03
2018-06-13T23:35:49.120Z,3.50
2018-06-13T23:38:17.557Z,3.23
2018-06-13T23:40:46.174Z,2.90
2018-06-13T23:43:14.475Z,3.17
2018-06-13T23:45:42.842Z,3.10
2018-06-13T23:48:11.292Z,2.60
2018-06-13T23:50:39.601Z,3.30
2018-06-13T23:53:07.903Z,3.00
2018-06-13T23:55:36.232Z,3.33
2018-06-13T23:58:04.561Z,2.93
